KSTS/STS METAR and TAF weather

Enter ICAO airport designator
Station Type Date Time Source
KSTS METAR 2021/01/16 02:53 UTC NOAA

KSTS 160253Z 11005KT 10SM SCT200 15/09 A3026 RMK AO2 SLP239 T01500094 50000


Station Type Date Time Source
KSTS Decoded METAR 2021/01/16 02:53 UTC NOAA

SANTA ROSA SONOMA COUNTY, CA, United States (KSTS) 38-30N 122-49W 39M
Jan 15, 2021 - 09:53 PM EST / 2021.01.16 0253 UTC
Wind: from the ESE (110 degrees) at 6 MPH (5 KT):0
Visibility: 10 mile(s):0
Sky conditions: partly cloudy
Temperature: 59.0 F (15.0 C)
Dew Point: 48.9 F (9.4 C)
Relative Humidity: 69%
Pressure (altimeter): 30.26 in. Hg (1024 hPa)
Pressure tendency: 0.00 inches (0.0 hPa) higher than three hours ago
ob: KSTS 160253Z 11005KT 10SM SCT200 15/09 A3026 RMK AO2 SLP239 T01500094 50000
cycle: 3

Station Type Date Time Source
KSTS TAF 2021/01/15 18:27 UTC NOAA

TAF KSTS 151724Z 1518/1618 VRB04KT P6SM SCT200
FM160800 00000KT 1/2SM FG VV002
FM161700 VRB03KT 4SM BR SCT006

Example: see airport list